Time;durP1;ratioP1;P1;durP2;ratioP2;P2;SDS_P1;SDS_P2;PMS_P1;PMS_P2;Temp;Humidity;BMP_temperature;BMP_pressure;BME280_temperature;BME280_humidity;BME280_pressure;Samples;Min_cycle;Max_cycle;Signal;HPM_P1;HPM_P2
2023/07/06 00:00:53;;;;;;;2.88;2.00;;;;;;;15.91;54.16;96841.59;4897747;29;20052;-78
2023/07/06 00:03:23;;;;;;;4.13;1.88;;;;;;;15.87;54.24;96843.03;4898178;29;20057;-77
2023/07/06 00:05:51;;;;;;;3.42;2.08;;;;;;;15.90;54.11;96840.00;4898083;29;20480;-78
2023/07/06 00:08:19;;;;;;;2.05;1.60;;;;;;;15.88;53.72;96835.97;4897840;29;20053;-78
2023/07/06 00:10:49;;;;;;;2.83;2.03;;;;;;;15.84;53.86;96832.94;4897562;29;20056;-78
2023/07/06 00:13:20;;;;;;;4.25;1.98;;;;;;;15.80;53.90;96831.72;4897718;29;20068;-78
2023/07/06 00:15:50;;;;;;;2.35;1.75;;;;;;;15.75;54.06;96839.44;4897973;29;20052;-77
2023/07/06 00:18:20;;;;;;;2.92;1.92;;;;;;;15.77;54.29;96845.31;4898139;29;20080;-78
2023/07/06 00:20:49;;;;;;;5.35;1.90;;;;;;;15.81;55.85;96849.16;4897592;29;20052;-78
2023/07/06 00:23:17;;;;;;;6.40;2.70;;;;;;;15.88;57.02;96854.38;4897779;29;20052;-78
2023/07/06 00:25:45;;;;;;;2.17;1.98;;;;;;;15.94;58.41;96843.81;4897633;29;20056;-78
2023/07/06 00:28:14;;;;;;;2.10;1.60;;;;;;;15.97;56.34;96853.91;4897898;29;20061;-78
2023/07/06 00:30:53;;;;;;;3.85;1.88;;;;;;;15.98;55.04;96854.72;4897500;29;20059;-78
2023/07/06 00:33:24;;;;;;;4.53;1.88;;;;;;;15.99;56.16;96856.34;4898271;29;20052;-77
2023/07/06 00:35:52;;;;;;;3.22;2.08;;;;;;;16.00;54.77;96850.84;4897622;29;20124;-78
2023/07/06 00:38:21;;;;;;;4.85;1.90;;;;;;;15.94;54.64;96849.09;4897913;29;20116;-78
2023/07/06 00:40:51;;;;;;;3.53;2.20;;;;;;;15.89;54.63;96856.78;4897712;29;20088;-78
2023/07/06 00:43:21;;;;;;;2.90;1.60;;;;;;;15.87;55.36;96850.91;4899342;29;20051;-78
2023/07/06 00:45:52;;;;;;;5.72;1.90;;;;;;;15.85;54.69;96852.94;4920154;29;20060;-78
2023/07/06 00:48:26;;;;;;;2.45;2.10;;;;;;;15.84;56.96;96853.97;4919660;29;20112;-78
2023/07/06 00:50:57;;;;;;;4.97;2.90;;;;;;;15.80;55.02;96847.50;4955772;23;20067;-81
2023/07/06 00:53:32;;;;;;;3.40;1.83;;;;;;;15.76;56.87;96846.31;4938027;29;20091;-80
2023/07/06 00:56:01;;;;;;;2.28;1.92;;;;;;;15.74;55.51;96845.72;4937850;29;20404;-81
2023/07/06 00:58:34;;;;;;;6.72;1.90;;;;;;;15.68;55.27;96852.59;4938021;29;20194;-80
2023/07/06 01:01:05;;;;;;;4.85;2.70;;;;;;;15.63;55.36;96853.22;4937892;29;20397;-81
2023/07/06 01:03:43;;;;;;;3.08;1.95;;;;;;;15.60;55.65;96847.56;4941198;29;20495;-81
2023/07/06 01:06:15;;;;;;;3.05;2.10;;;;;;;15.53;55.54;96850.22;4936879;29;20132;-80
2023/07/06 01:08:42;;;;;;;2.45;2.20;;;;;;;15.41;55.75;96844.78;4936617;29;20134;-81
2023/07/06 01:11:14;;;;;;;3.88;1.67;;;;;;;15.30;56.16;96841.97;4937103;29;20507;-80
2023/07/06 01:13:47;;;;;;;4.85;2.13;;;;;;;15.16;56.63;96841.19;4938354;29;20052;-81
2023/07/06 01:16:20;;;;;;;3.30;2.13;;;;;;;15.06;56.70;96849.47;4937564;29;20064;-80
2023/07/06 01:18:57;;;;;;;4.80;2.15;;;;;;;14.99;57.11;96843.44;4937900;29;20064;-80
2023/07/06 01:21:33;;;;;;;6.70;2.17;;;;;;;14.96;57.23;96838.59;4937559;29;20052;-81
2023/07/06 01:24:31;;;;;;;4.00;2.10;;;;;;;14.90;57.49;96839.41;4937979;29;20051;-80
2023/07/06 01:27:28;;;;;;;3.22;2.08;;;;;;;14.84;57.68;96833.13;4937990;29;20084;-80
2023/07/06 01:30:25;;;;;;;4.07;2.20;;;;;;;14.84;57.59;96838.38;4937711;29;20487;-81
2023/07/06 01:32:59;;;;;;;2.38;1.83;;;;;;;14.76;57.70;96836.78;4937612;29;20150;-81
2023/07/06 01:35:32;;;;;;;2.78;2.30;;;;;;;14.74;57.80;96838.81;4937972;29;20059;-80
2023/07/06 01:38:01;;;;;;;4.28;2.30;;;;;;;14.78;57.58;96829.50;4937308;29;20043;-80
2023/07/06 01:40:28;;;;;;;6.75;2.08;;;;;;;14.73;57.47;96839.00;4936911;29;20083;-81
2023/07/06 01:42:59;;;;;;;6.68;2.97;;;;;;;14.70;57.63;96834.97;4936784;29;20082;-81
2023/07/06 01:45:28;;;;;;;2.80;2.00;;;;;;;14.71;57.94;96838.38;4937330;29;20062;-80
2023/07/06 01:48:00;;;;;;;2.80;2.17;;;;;;;14.77;58.57;96843.63;4937446;29;20059;-80
2023/07/06 01:50:38;;;;;;;3.95;2.10;;;;;;;14.77;57.85;96835.75;4936647;29;20051;-81
2023/07/06 01:53:11;;;;;;;4.10;1.98;;;;;;;14.81;59.61;96836.19;4937226;29;20055;-80
2023/07/06 01:55:44;;;;;;;3.10;2.20;;;;;;;14.82;58.10;96835.16;4936739;29;20066;-80
2023/07/06 01:58:17;;;;;;;;;;;;;;;14.84;57.57;96839.19;4939078;29;20044;-80
2023/07/06 02:00:49;;;;;;;2.17;1.98;;;;;;;14.80;57.83;96832.75;4940676;29;19923;-80
2023/07/06 02:03:19;;;;;;;3.78;2.17;;;;;;;14.80;57.60;96832.75;4940717;29;20055;-80
2023/07/06 02:05:48;;;;;;;2.95;2.00;;;;;;;14.78;57.80;96826.88;4940857;29;20078;-81
2023/07/06 02:08:17;;;;;;;3.28;2.13;;;;;;;14.75;57.78;96829.91;4940739;29;20051;-80
2023/07/06 02:10:45;;;;;;;5.82;2.08;;;;;;;14.73;57.93;96820.63;4940167;29;20094;-80
2023/07/06 02:13:13;;;;;;;2.00;1.80;;;;;;;14.70;57.85;96821.84;4940076;29;20048;-81
2023/07/06 02:15:41;;;;;;;3.95;2.45;;;;;;;14.65;58.04;96823.44;4940106;29;20112;-80
2023/07/06 02:18:08;;;;;;;6.10;2.08;;;;;;;14.56;58.34;96821.03;4939886;29;20512;-81
2023/07/06 02:20:37;;;;;;;4.55;2.30;;;;;;;14.49;58.37;96816.75;4940256;29;20051;-80
2023/07/06 02:23:07;;;;;;;4.07;1.90;;;;;;;14.43;58.59;96811.28;4940237;29;20098;-81
2023/07/06 02:25:36;;;;;;;2.58;2.17;;;;;;;14.36;58.76;96813.09;4940607;29;20504;-80
2023/07/06 02:28:04;;;;;;;3.30;2.20;;;;;;;14.28;58.85;96813.28;4940775;29;20143;-81
2023/07/06 02:30:32;;;;;;;3.72;2.00;;;;;;;14.21;59.05;96818.53;4959224;28;20032;-81
2023/07/06 02:33:01;;;;;;;4.90;2.33;;;;;;;14.16;59.19;96812.25;4961569;28;20036;-80
2023/07/06 02:35:29;;;;;;;5.60;2.20;;;;;;;14.11;59.12;96812.06;4959519;28;20051;-81
2023/07/06 02:37:58;;;;;;;7.80;2.75;;;;;;;14.09;59.59;96816.69;4946811;29;20052;-80
2023/07/06 02:40:26;;;;;;;3.58;1.88;;;;;;;14.11;59.49;96825.97;4943415;29;20056;-80
2023/07/06 02:42:53;;;;;;;4.35;1.90;;;;;;;14.11;59.56;96827.78;4941215;29;20051;-80
2023/07/06 02:45:21;;;;;;;4.30;2.20;;;;;;;14.08;59.60;96823.75;4941067;29;20087;-80
2023/07/06 02:47:49;;;;;;;3.25;2.10;;;;;;;14.06;59.60;96819.69;4940133;29;20056;-80
2023/07/06 02:50:20;;;;;;;4.15;2.28;;;;;;;14.05;59.69;96823.34;4939725;29;20058;-80
2023/07/06 02:52:47;;;;;;;3.25;2.10;;;;;;;14.06;59.69;96815.28;4939633;29;20044;-80
2023/07/06 02:55:17;;;;;;;5.03;2.60;;;;;;;14.08;59.74;96820.31;4939654;29;20490;-80
2023/07/06 02:57:45;;;;;;;2.92;1.95;;;;;;;14.07;59.61;96826.56;4939892;29;20056;-80
2023/07/06 03:00:13;;;;;;;4.18;2.40;;;;;;;14.06;59.55;96823.16;4939461;29;20051;-80
2023/07/06 03:02:41;;;;;;;4.35;2.28;;;;;;;14.02;59.52;96825.34;4939700;29;20087;-80
2023/07/06 03:05:10;;;;;;;3.15;2.17;;;;;;;13.97;59.71;96827.75;4939636;29;20056;-80
2023/07/06 03:07:37;;;;;;;2.47;2.00;;;;;;;13.92;59.84;96826.72;4939107;29;20522;-81
2023/07/06 03:10:09;;;;;;;5.28;3.13;;;;;;;13.87;59.87;96826.50;4938298;29;20052;-80
2023/07/06 03:12:38;;;;;;;4.60;2.10;;;;;;;13.81;60.11;96820.22;4939402;29;20095;-80
2023/07/06 03:15:10;;;;;;;5.40;2.38;;;;;;;13.76;60.16;96823.44;4940438;29;20055;-80
2023/07/06 03:17:39;;;;;;;3.50;2.23;;;;;;;13.75;60.59;96829.72;4939204;29;20062;-80
2023/07/06 03:20:14;;;;;;;9.60;2.50;;;;;;;13.73;60.61;96825.63;4949182;29;20047;-80
2023/07/06 03:22:41;;;;;;;3.00;2.00;;;;;;;13.69;60.57;96821.81;4939361;29;20098;-80
2023/07/06 03:25:10;;;;;;;2.97;2.20;;;;;;;13.63;60.78;96820.78;4938845;29;20180;-80
2023/07/06 03:27:40;;;;;;;4.88;2.00;;;;;;;13.60;60.89;96831.66;4939261;29;20051;-80
2023/07/06 03:30:10;;;;;;;4.97;2.47;;;;;;;13.57;61.19;96830.22;4938347;29;20055;-80
2023/07/06 03:32:38;;;;;;;2.88;2.28;;;;;;;13.55;61.02;96823.56;4938223;29;20448;-81
2023/07/06 03:35:08;;;;;;;2.58;2.38;;;;;;;13.57;61.19;96832.03;4932100;29;20056;-79
2023/07/06 03:37:36;;;;;;;4.13;2.25;;;;;;;13.59;61.00;96824.78;4934237;29;20134;-80
2023/07/06 03:40:05;;;;;;;5.03;2.45;;;;;;;13.58;61.02;96823.19;4938913;29;20139;-81
2023/07/06 03:42:33;;;;;;;4.78;2.38;;;;;;;13.56;61.09;96826.00;4948964;29;20430;-80
2023/07/06 03:45:05;;;;;;;3.38;2.10;;;;;;;13.56;61.17;96828.59;4938091;29;20115;-80
2023/07/06 03:47:33;;;;;;;3.80;2.20;;;;;;;13.53;61.20;96828.97;4937564;29;20495;-79
2023/07/06 03:50:01;;;;;;;4.57;2.40;;;;;;;13.55;61.31;96824.34;4938322;29;20152;-81
2023/07/06 03:52:28;;;;;;;5.00;2.47;;;;;;;13.56;61.29;96831.22;4937756;29;20063;-80
2023/07/06 03:54:59;;;;;;;3.22;2.30;;;;;;;13.54;61.41;96838.47;4937365;29;20052;-80
2023/07/06 03:57:27;;;;;;;3.28;2.40;;;;;;;13.51;61.31;96828.41;4937827;29;20103;-81
2023/07/06 03:59:56;;;;;;;4.22;2.10;;;;;;;13.48;61.53;96823.53;4937819;29;20273;-81
2023/07/06 04:02:25;;;;;;;4.75;2.58;;;;;;;13.48;61.68;96827.97;4936625;29;20143;-79
2023/07/06 04:04:53;;;;;;;9.32;2.90;;;;;;;13.44;61.57;96831.97;4936611;29;20062;-79
2023/07/06 04:07:21;;;;;;;6.13;2.05;;;;;;;13.42;62.03;96828.72;4936096;29;20063;-80
2023/07/06 04:09:49;;;;;;;4.70;2.45;;;;;;;13.42;61.77;96823.50;4936621;29;20051;-80
2023/07/06 04:12:16;;;;;;;3.28;2.30;;;;;;;13.42;61.96;96829.53;4937353;29;20058;-80
2023/07/06 04:14:44;;;;;;;4.28;2.42;;;;;;;13.42;61.93;96829.53;4938163;29;20059;-81
2023/07/06 04:17:16;;;;;;;3.67;2.05;;;;;;;13.42;62.08;96829.53;4937053;29;20138;-80
2023/07/06 04:19:45;;;;;;;3.38;2.08;;;;;;;13.42;62.08;96834.78;4936017;29;20059;-80
2023/07/06 04:22:13;;;;;;;6.50;2.30;;;;;;;13.44;61.92;96838.00;4937702;29;20093;-80
2023/07/06 04:24:41;;;;;;;3.45;2.22;;;;;;;13.43;61.90;96836.41;4937365;29;20428;-80
2023/07/06 04:27:08;;;;;;;3.53;2.53;;;;;;;13.43;61.97;96832.97;4936962;29;20111;-80
2023/07/06 04:29:37;;;;;;;5.05;2.35;;;;;;;13.44;62.21;96838.00;4937260;29;20586;-80
2023/07/06 04:32:06;;;;;;;4.13;2.03;;;;;;;13.51;61.84;96835.44;4936730;29;20083;-80
2023/07/06 04:34:33;;;;;;;4.95;2.10;;;;;;;13.52;61.88;96835.25;4935910;29;20047;-78
2023/07/06 04:37:03;;;;;;;3.97;2.42;;;;;;;13.55;61.88;96829.59;4937011;29;20052;-78
2023/07/06 04:39:30;;;;;;;2.90;2.00;;;;;;;13.57;61.80;96832.84;4939269;29;20078;-78
2023/07/06 04:41:59;;;;;;;3.85;2.35;;;;;;;13.60;61.79;96832.47;4939259;29;20052;-79
2023/07/06 04:44:26;;;;;;;6.45;3.03;;;;;;;13.64;61.94;96830.25;4937768;29;20079;-79
2023/07/06 04:46:58;;;;;;;6.72;2.40;;;;;;;13.71;61.54;96835.50;4937744;29;20058;-80
2023/07/06 04:49:27;;;;;;;;;;;;;;;13.75;61.52;96826.25;4937620;29;20050;-79
2023/07/06 04:51:54;;;;;;;3.35;2.38;;;;;;;13.75;61.46;96834.94;4938942;29;19957;-79
2023/07/06 04:54:24;;;;;;;4.38;2.50;;;;;;;13.75;62.33;96840.19;4938530;29;20103;-75
2023/07/06 04:56:52;;;;;;;5.72;2.85;;;;;;;13.78;62.40;96836.38;4934348;29;20055;-75
2023/07/06 04:59:19;;;;;;;3.58;2.17;;;;;;;13.87;62.31;96844.88;4936046;29;20071;-80
2023/07/06 05:01:47;;;;;;;3.65;2.42;;;;;;;13.93;61.72;96842.28;4935057;29;20055;-79
2023/07/06 05:04:17;;;;;;;30.30;18.00;;;;;;;13.98;61.86;96844.28;4934686;29;20079;-79
2023/07/06 05:06:45;;;;;;;11.75;7.25;;;;;;;14.06;61.68;96843.28;4934986;29;20600;-79
2023/07/06 05:09:13;;;;;;;6.03;3.75;;;;;;;14.15;62.02;96844.75;4935181;29;20063;-80
2023/07/06 05:11:42;;;;;;;4.25;2.72;;;;;;;14.25;61.50;96850.41;4937463;29;20056;-79
2023/07/06 05:14:09;;;;;;;4.32;2.97;;;;;;;14.30;60.88;96853.28;4936474;29;20086;-79
2023/07/06 05:16:37;;;;;;;5.00;2.90;;;;;;;14.33;60.89;96845.00;4936751;29;20213;-79
2023/07/06 05:19:05;;;;;;;4.15;3.08;;;;;;;14.41;61.77;96844.81;4937140;29;20138;-79
2023/07/06 05:21:35;;;;;;;4.78;2.72;;;;;;;14.48;61.38;96841.38;4941607;29;20094;-80
2023/07/06 05:24:03;;;;;;;6.00;2.70;;;;;;;14.57;62.07;96848.88;4940085;29;20432;-82
2023/07/06 05:26:31;;;;;;;4.30;2.85;;;;;;;14.64;61.53;96843.63;4939914;29;20061;-80
2023/07/06 05:29:00;;;;;;;4.82;3.03;;;;;;;14.69;60.75;96853.53;4937488;29;20048;-79
2023/07/06 05:31:27;;;;;;;3.88;2.97;;;;;;;14.73;60.22;96855.56;4941255;29;20052;-82
2023/07/06 05:33:55;;;;;;;3.90;2.38;;;;;;;14.79;61.39;96853.94;4940555;29;20058;-79
2023/07/06 05:36:23;;;;;;;6.13;3.40;;;;;;;14.91;61.71;96857.59;4940227;29;20130;-79
2023/07/06 05:38:50;;;;;;;6.55;3.10;;;;;;;15.00;60.89;96850.31;4940501;29;20112;-79
2023/07/06 05:41:18;;;;;;;5.00;3.15;;;;;;;15.05;59.97;96858.38;4939660;29;20075;-79
2023/07/06 05:43:45;;;;;;;4.15;3.50;;;;;;;15.09;59.98;96856.97;4939585;29;20127;-81
2023/07/06 05:46:14;;;;;;;5.45;3.10;;;;;;;15.15;59.77;96855.34;4939879;29;20052;-79
2023/07/06 05:48:42;;;;;;;3.92;2.88;;;;;;;15.22;59.78;96856.94;4940367;29;20051;-79
2023/07/06 05:51:10;;;;;;;7.43;3.08;;;;;;;15.29;59.54;96869.28;4939476;29;20083;-79
2023/07/06 05:53:37;;;;;;;5.13;3.05;;;;;;;15.34;59.59;96869.47;4940369;29;20144;-79
2023/07/06 05:56:05;;;;;;;5.60;3.05;;;;;;;15.42;61.92;96867.41;4940033;29;20632;-79
2023/07/06 05:58:33;;;;;;;5.88;3.63;;;;;;;15.49;59.37;96866.59;4939946;29;20427;-79
2023/07/06 06:01:01;;;;;;;9.25;3.97;;;;;;;15.56;59.96;96867.38;4939410;29;20566;-79
2023/07/06 06:03:31;;;;;;;5.10;3.58;;;;;;;15.65;60.91;96872.22;4939638;29;20092;-79
2023/07/06 06:05:59;;;;;;;5.00;3.67;;;;;;;15.75;60.93;96873.66;4939699;29;20079;-79
2023/07/06 06:08:28;;;;;;;5.75;3.63;;;;;;;15.89;62.81;96871.75;4939321;29;20507;-79
2023/07/06 06:10:56;;;;;;;4.65;3.22;;;;;;;15.98;61.99;96875.75;4939770;29;20464;-82
2023/07/06 06:13:24;;;;;;;8.02;4.05;;;;;;;16.06;61.18;96878.16;4949458;29;20107;-79
2023/07/06 06:15:52;;;;;;;4.40;2.60;;;;;;;16.13;59.18;96873.66;4948567;29;20051;-79
2023/07/06 06:18:20;;;;;;;6.55;3.25;;;;;;;16.21;59.28;96881.34;4941735;29;20595;-79
2023/07/06 06:20:50;;;;;;;5.63;2.92;;;;;;;16.29;58.60;96877.66;4939344;29;20043;-79
2023/07/06 06:23:20;;;;;;;5.82;2.90;;;;;;;16.36;58.46;96881.06;4939298;29;20091;-82
2023/07/06 06:25:47;;;;;;;8.27;3.42;;;;;;;16.46;62.80;96878.78;4940072;29;20479;-80
2023/07/06 06:28:16;;;;;;;4.25;3.33;;;;;;;16.58;62.17;96880.72;4939460;29;20078;-79
2023/07/06 06:30:44;;;;;;;4.72;3.00;;;;;;;16.66;58.46;96880.44;4938637;29;20135;-81
2023/07/06 06:33:12;;;;;;;5.47;3.17;;;;;;;16.71;58.09;96885.91;4938742;29;20118;-79
2023/07/06 06:35:40;;;;;;;4.78;3.10;;;;;;;16.79;59.36;96879.56;4939337;29;20130;-79
2023/07/06 06:38:09;;;;;;;5.15;2.75;;;;;;;16.87;56.43;96890.66;4939389;29;20059;-79
2023/07/06 06:40:36;;;;;;;8.70;3.08;;;;;;;16.93;55.72;96883.75;4938747;29;20151;-79
2023/07/06 06:43:04;;;;;;;3.88;2.80;;;;;;;17.01;56.09;96885.28;4954354;28;20054;-77
2023/07/06 06:45:32;;;;;;;5.32;2.78;;;;;;;17.09;55.13;96887.66;4960881;28;20028;-81
2023/07/06 06:48:00;;;;;;;6.55;3.40;;;;;;;17.18;54.44;96886.34;4959901;28;20043;-79
2023/07/06 06:50:28;;;;;;;3.25;2.33;;;;;;;17.29;53.97;96883.03;4993606;23;20054;-79
2023/07/06 06:52:56;;;;;;;8.10;3.22;;;;;;;17.42;52.99;96881.28;4956289;29;20039;-78
2023/07/06 06:55:25;;;;;;;9.38;3.72;;;;;;;17.54;52.71;96889.28;4956489;29;20055;-78
2023/07/06 06:57:53;;;;;;;7.90;3.72;;;;;;;17.65;52.46;96884.09;4966109;29;20138;-78
2023/07/06 07:00:20;;;;;;;6.05;4.18;;;;;;;17.77;51.68;96878.88;4969956;29;20498;-79
2023/07/06 07:02:48;;;;;;;6.85;3.38;;;;;;;17.88;51.37;96880.00;4961256;29;20055;-79
2023/07/06 07:05:16;;;;;;;7.03;3.22;;;;;;;17.99;50.88;96881.09;4957099;29;20454;-79
2023/07/06 07:07:44;;;;;;;3.55;2.80;;;;;;;18.08;50.55;96880.56;4956602;29;20052;-78
2023/07/06 07:10:12;;;;;;;3.83;2.72;;;;;;;18.22;50.79;96878.56;4956937;29;20043;-78
2023/07/06 07:12:42;;;;;;;5.18;2.42;;;;;;;18.35;49.99;96880.22;4958216;29;20094;-79
2023/07/06 07:15:12;;;;;;;6.93;2.92;;;;;;;18.44;49.80;96873.59;4958074;29;20071;-78
2023/07/06 07:17:40;;;;;;;5.13;2.33;;;;;;;18.55;49.34;96884.44;4957166;29;20067;-78
2023/07/06 07:20:09;;;;;;;4.50;2.20;;;;;;;18.65;49.17;96874.09;4956438;29;20043;-78
2023/07/06 07:22:38;;;;;;;5.05;2.03;;;;;;;18.76;48.27;96881.28;4956191;29;20057;-78
2023/07/06 07:25:07;;;;;;;1.98;1.70;;;;;;;18.86;46.86;96878.09;4956609;29;20054;-78
2023/07/06 07:27:35;;;;;;;4.03;1.63;;;;;;;18.96;46.87;96874.88;4956861;29;20055;-78
2023/07/06 07:30:05;;;;;;;3.67;1.63;;;;;;;19.07;46.03;96879.38;4955750;29;20054;-78
2023/07/06 07:32:33;;;;;;;3.97;1.85;;;;;;;19.18;46.37;96872.50;4956155;29;20400;-78
2023/07/06 07:35:01;;;;;;;4.07;1.92;;;;;;;19.27;46.09;96877.19;4956736;29;20534;-79
2023/07/06 07:37:28;;;;;;;5.13;1.80;;;;;;;19.38;45.69;96869.50;4957686;29;20051;-78
2023/07/06 07:39:57;;;;;;;2.75;1.67;;;;;;;19.48;45.17;96873.19;4955987;29;20051;-79
2023/07/06 07:42:25;;;;;;;2.25;1.90;;;;;;;19.56;45.10;96867.50;4955661;29;20055;-78
2023/07/06 07:44:57;;;;;;;4.82;1.90;;;;;;;19.67;44.82;96870.38;4955867;29;20051;-78
2023/07/06 07:47:27;;;;;;;2.78;1.77;;;;;;;19.78;44.61;96866.13;4955815;29;20055;-78
2023/07/06 07:49:55;;;;;;;2.55;1.63;;;;;;;19.88;44.65;96866.34;4955355;29;20477;-78
2023/07/06 07:52:22;;;;;;;4.13;2.10;;;;;;;19.98;44.56;96863.09;4956362;29;20051;-79
2023/07/06 07:54:53;;;;;;;3.28;2.00;;;;;;;20.09;44.20;96863.03;4955302;28;20051;-78
2023/07/06 07:57:21;;;;;;;3.45;1.90;;;;;;;20.18;43.88;96871.41;4955229;29;20055;-78
2023/07/06 07:59:49;;;;;;;2.70;2.08;;;;;;;20.27;43.76;96869.19;4955846;29;20078;-79
2023/07/06 08:02:17;;;;;;;4.90;1.95;;;;;;;20.36;43.84;96871.25;4955945;29;20558;-78
2023/07/06 08:04:47;;;;;;;4.15;2.13;;;;;;;20.46;44.31;96873.25;4955496;29;20081;-78
2023/07/06 08:07:15;;;;;;;3.40;2.03;;;;;;;20.55;43.44;96866.56;4955408;29;20101;-78
2023/07/06 08:09:43;;;;;;;3.20;2.10;;;;;;;20.64;42.67;96874.94;4955785;29;20089;-78
2023/07/06 08:12:11;;;;;;;3.95;2.15;;;;;;;20.74;42.94;96861.03;4955761;29;20142;-78
2023/07/06 08:14:42;;;;;;;2.95;1.80;;;;;;;20.86;42.69;96867.09;4954872;29;20047;-78
2023/07/06 08:17:17;;;;;;;3.53;1.83;;;;;;;20.98;42.28;96870.44;5154694;27;1191234;-77
2023/07/06 08:19:45;;;;;;;6.32;1.77;;;;;;;21.09;42.43;96866.09;5167260;27;20282;-78
2023/07/06 08:22:33;;;;;;;3.75;1.77;;;;;;;21.18;42.16;96869.16;5151443;27;20441;-78
2023/07/06 08:25:00;;;;;;;2.95;2.13;;;;;;;21.23;42.20;96866.59;5151559;27;20142;-78
2023/07/06 08:27:28;;;;;;;2.15;1.73;;;;;;;21.31;41.67;96873.31;5151578;27;20047;-78
2023/07/06 08:29:55;;;;;;;2.35;1.63;;;;;;;21.38;42.29;96869.47;5150828;27;20082;-77
2023/07/06 08:32:24;;;;;;;2.70;1.90;;;;;;;21.46;40.99;96880.72;5151063;27;20070;-77
2023/07/06 08:34:53;;;;;;;7.35;2.25;;;;;;;21.49;40.65;96869.63;5151613;27;20054;-77
2023/07/06 08:37:21;;;;;;;3.60;2.00;;;;;;;21.46;40.05;96870.13;5152290;27;20039;-78
2023/07/06 08:39:49;;;;;;;2.53;1.70;;;;;;;21.45;40.43;96871.97;5151803;27;20525;-77
2023/07/06 08:42:18;;;;;;;2.55;1.95;;;;;;;21.50;41.33;96872.03;5152051;27;20050;-77
2023/07/06 08:44:51;;;;;;;3.28;2.05;;;;;;;21.61;40.38;96872.97;5151822;27;20043;-77
2023/07/06 08:47:19;;;;;;;5.68;2.22;;;;;;;21.71;40.92;96862.50;5151345;27;20086;-77
2023/07/06 08:49:48;;;;;;;4.55;2.25;;;;;;;21.83;39.98;96861.56;5150554;27;20047;-77
2023/07/06 08:52:16;;;;;;;3.50;1.80;;;;;;;21.92;40.00;96863.53;5150524;27;20081;-77
2023/07/06 08:54:50;;;;;;;4.18;2.25;;;;;;;22.01;39.84;96867.34;5150616;27;20049;-77
2023/07/06 08:57:22;;;;;;;4.90;2.20;;;;;;;22.11;39.16;96861.38;5150951;27;20078;-77
2023/07/06 08:59:51;;;;;;;4.50;2.05;;;;;;;22.21;39.63;96865.97;5150383;27;20111;-77
2023/07/06 09:02:22;;;;;;;5.65;2.25;;;;;;;22.32;39.36;96862.41;5150662;27;20055;-77
2023/07/06 09:04:54;;;;;;;3.30;2.10;;;;;;;22.44;38.82;96858.81;5150418;27;20082;-77
2023/07/06 09:07:32;;;;;;;3.95;1.95;;;;;;;22.54;38.06;96859.72;5150774;27;20451;-77
2023/07/06 09:10:00;;;;;;;2.20;1.90;;;;;;;22.63;37.60;96858.19;5150419;27;20363;-78
2023/07/06 09:12:48;;;;;;;2.47;1.88;;;;;;;22.74;36.71;96858.25;5150505;27;20058;-77
2023/07/06 09:15:16;;;;;;;3.75;2.60;;;;;;;22.83;37.07;96856.78;5150259;27;20058;-78
2023/07/06 09:17:46;;;;;;;3.30;2.55;;;;;;;22.94;36.80;96857.66;5150312;27;20047;-77
2023/07/06 09:20:17;;;;;;;4.78;2.10;;;;;;;23.00;36.30;96857.47;5149917;27;20126;-77
2023/07/06 09:22:46;;;;;;;8.60;2.07;;;;;;;23.02;36.04;96855.34;5150025;27;20047;-77
2023/07/06 09:25:17;;;;;;;4.07;2.00;;;;;;;23.08;36.87;96858.84;5150159;27;20275;-78
2023/07/06 09:27:48;;;;;;;3.72;1.90;;;;;;;23.16;36.45;96866.34;5141390;27;20047;-78
2023/07/06 09:30:29;;;;;;;2.72;2.25;;;;;;;23.19;35.20;96862.38;5136041;27;20111;-78
2023/07/06 09:33:06;;;;;;;3.35;2.33;;;;;;;23.18;35.41;96866.09;5136285;27;20494;-78
2023/07/06 09:35:37;;;;;;;4.97;2.05;;;;;;;23.22;34.92;96859.19;5136188;27;20055;-78
2023/07/06 09:38:06;;;;;;;3.53;2.50;;;;;;;23.29;34.63;96859.00;5135810;27;20047;-78
2023/07/06 09:40:34;;;;;;;4.10;1.80;;;;;;;23.30;34.65;96861.38;5135576;27;20579;-78
2023/07/06 09:43:02;;;;;;;2.38;2.13;;;;;;;23.32;34.58;96861.91;5135775;27;20078;-78
2023/07/06 09:45:31;;;;;;;5.38;2.60;;;;;;;23.38;35.18;96863.56;5135666;27;20058;-78
2023/07/06 09:48:02;;;;;;;4.63;1.90;;;;;;;23.45;35.06;96864.13;5136237;27;20047;-77
2023/07/06 09:50:38;;;;;;;2.13;1.63;;;;;;;23.48;35.30;96859.34;5146841;27;20050;-78
2023/07/06 09:53:14;;;;;;;3.65;2.10;;;;;;;23.52;34.62;96860.44;5156243;27;20524;-78
2023/07/06 09:55:41;;;;;;;2.20;1.90;;;;;;;23.56;34.62;96853.53;5142456;27;20051;-78
2023/07/06 09:58:15;;;;;;;5.18;2.00;;;;;;;23.59;34.22;96853.84;5136247;27;20051;-77
2023/07/06 10:00:52;;;;;;;4.90;2.28;;;;;;;23.62;34.51;96855.19;5135406;27;20227;-78
2023/07/06 10:03:33;;;;;;;4.85;1.77;;;;;;;23.61;34.32;96856.22;5135474;27;20051;-78
2023/07/06 10:06:07;;;;;;;3.15;2.30;;;;;;;23.64;34.49;96861.03;5136303;27;20051;-78
2023/07/06 10:08:44;;;;;;;2.40;2.20;;;;;;;23.71;34.17;96856.28;5136264;27;20058;-78
2023/07/06 10:11:22;;;;;;;3.03;1.88;;;;;;;23.78;34.08;96862.19;5135094;27;20423;-78
2023/07/06 10:13:58;;;;;;;2.67;2.33;;;;;;;23.88;33.82;96865.94;5150484;27;20104;-78
2023/07/06 10:16:42;;;;;;;2.72;1.83;;;;;;;23.90;33.58;96863.84;5149531;27;20069;-79
2023/07/06 10:19:21;;;;;;;2.70;1.75;;;;;;;23.83;33.36;96859.56;5150953;27;20051;-78
2023/07/06 10:22:00;;;;;;;2.75;1.60;;;;;;;23.78;34.22;96858.72;5148762;27;20047;-78
2023/07/06 10:24:37;;;;;;;2.35;1.73;;;;;;;23.74;33.64;96861.06;5144547;27;20071;-79
2023/07/06 10:27:12;;;;;;;4.00;2.15;;;;;;;23.71;33.14;96856.28;5136394;27;20051;-78
2023/07/06 10:29:45;;;;;;;2.22;1.70;;;;;;;23.69;33.50;96861.06;5134993;27;20164;-78
2023/07/06 10:32:15;;;;;;;4.53;2.00;;;;;;;23.61;33.16;96854.38;5135109;27;20075;-78
2023/07/06 10:34:51;;;;;;;3.72;2.33;;;;;;;23.57;34.77;96852.47;5134896;27;20553;-78
2023/07/06 10:37:19;;;;;;;2.17;1.90;;;;;;;23.54;33.64;96859.13;5134831;27;20043;-78
2023/07/06 10:40:16;;;;;;;2.88;2.20;;;;;;;23.53;33.75;96852.19;5133361;27;20054;-78
2023/07/06 10:42:51;;;;;;;2.67;2.42;;;;;;;23.61;33.76;96853.56;5134641;27;20122;-78
2023/07/06 10:45:39;;;;;;;3.15;2.38;;;;;;;23.64;33.18;96853.84;5135879;27;20135;-78
2023/07/06 10:48:15;;;;;;;3.30;2.72;;;;;;;23.72;34.17;96854.41;5138440;27;20043;-78
2023/07/06 10:50:47;;;;;;;5.20;3.17;;;;;;;23.80;33.24;96846.75;5137812;27;20086;-78
2023/07/06 10:53:25;;;;;;;4.32;2.92;;;;;;;23.84;32.71;96855.81;5137701;27;20122;-78
2023/07/06 10:56:07;;;;;;;4.25;2.63;;;;;;;23.82;33.84;96847.28;5136009;27;20059;-78
2023/07/06 10:58:37;;;;;;;6.65;5.80;;;;;;;23.81;32.69;96852.88;5134742;27;20561;-78
2023/07/06 11:01:08;;;;;;;6.40;3.25;;;;;;;23.79;34.14;96847.00;5134138;27;20047;-78
2023/07/06 11:03:38;;;;;;;2.38;2.03;;;;;;;23.83;33.15;96848.91;5134359;27;20046;-78
2023/07/06 11:06:11;;;;;;;2.53;2.10;;;;;;;23.89;34.19;96851.59;5134629;27;20476;-78
2023/07/06 11:08:57;;;;;;;;;;;;;;;23.96;32.91;96847.59;5134788;27;20452;-78
2023/07/06 11:11:28;;;;;;;3.20;2.13;;;;;;;24.00;31.71;96850.56;5133724;27;19919;-78
2023/07/06 11:13:55;;;;;;;2.17;1.88;;;;;;;24.01;30.79;96846.84;5134569;27;20439;-78
2023/07/06 11:16:27;;;;;;;3.67;1.95;;;;;;;23.99;31.08;96841.78;5135744;27;20115;-78
2023/07/06 11:18:56;;;;;;;;;;;;;;;24.02;32.25;96854.56;5135315;27;20086;-78
2023/07/06 11:21:39;;;;;;;3.92;2.78;;;;;;;23.99;31.16;96847.09;5133717;27;19925;-78
2023/07/06 11:24:16;;;;;;;4.47;2.53;;;;;;;23.94;31.69;96851.59;5133856;27;20445;-78
2023/07/06 11:26:49;;;;;;;5.45;2.80;;;;;;;23.89;31.67;96859.56;5133829;27;20729;-78
2023/07/06 11:29:20;;;;;;;3.05;2.28;;;;;;;23.87;31.32;96853.72;5133457;27;20536;-78
2023/07/06 11:31:59;;;;;;;7.65;3.42;;;;;;;23.94;31.48;96854.25;5133779;27;20438;-78
2023/07/06 11:34:35;;;;;;;2.78;2.28;;;;;;;24.05;30.99;96850.56;5133560;27;20092;-78
2023/07/06 11:37:12;;;;;;;3.40;2.10;;;;;;;24.09;30.70;96845.53;5133661;27;20422;-78
2023/07/06 11:39:50;;;;;;;2.75;1.98;;;;;;;24.11;31.64;96854.84;5133552;27;20468;-79
2023/07/06 11:42:36;;;;;;;2.92;1.90;;;;;;;24.08;29.73;96850.06;5133634;27;20051;-78
2023/07/06 11:45:09;;;;;;;2.75;1.95;;;;;;;24.12;30.55;96845.81;5133203;27;20130;-78
2023/07/06 11:47:53;;;;;;;4.78;2.53;;;;;;;24.23;31.19;96851.97;5133950;27;20467;-78
2023/07/06 11:50:22;;;;;;;3.28;2.22;;;;;;;24.30;30.54;96846.38;5132739;27;20521;-78